Time;durP1;ratioP1;P1;durP2;ratioP2;P2;SDS_P1;SDS_P2;PMS_P1;PMS_P2;Temp;Humidity;BMP_temperature;BMP_pressure;BME280_temperature;BME280_humidity;BME280_pressure;Samples;Min_cycle;Max_cycle;Signal;HPM_P1;HPM_P2
2022/12/06 00:01:44;;;;;;;15.32;7.32;;;;;;;;;;5003593;28;20038;-60
2022/12/06 00:04:13;;;;;;;9.90;6.82;;;;;;;;;;5001266;28;20046;-63
2022/12/06 00:06:46;;;;;;;14.77;7.90;;;;;;;;;;5001108;28;20132;-61
2022/12/06 00:09:26;;;;;;;13.55;7.85;;;;;;;;;;5004515;28;20386;-62
2022/12/06 00:11:53;;;;;;;14.82;7.90;;;;;;;;;;4993213;28;20145;-62
2022/12/06 00:14:19;;;;;;;15.23;8.25;;;;;;;;;;4993828;28;20046;-68
2022/12/06 00:16:46;;;;;;;14.65;7.97;;;;;;;;;;5001294;28;20042;-65
2022/12/06 00:19:14;;;;;;;14.40;7.60;;;;;;;;;;5002888;28;20049;-63
2022/12/06 00:21:40;;;;;;;10.73;6.95;;;;;;;;;;5002371;28;20053;-62
2022/12/06 00:24:11;;;;;;;14.35;6.80;;;;;;;;;;5001862;28;20052;-62
2022/12/06 00:26:39;;;;;;;12.95;6.82;;;;;;;;;;4998380;28;20425;-62
2022/12/06 00:29:06;;;;;;;15.68;6.45;;;;;;;;;;5004911;28;20053;-62
2022/12/06 00:31:34;;;;;;;13.75;6.40;;;;;;;;;;4999737;28;20054;-61
2022/12/06 00:34:01;;;;;;;10.15;6.35;;;;;;;;;;5002684;28;20041;-60
2022/12/06 00:36:30;;;;;;;10.65;5.72;;;;;;;;;;4996335;28;20053;-63
2022/12/06 00:38:58;;;;;;;14.63;6.47;;;;;;;;;;5004211;28;20115;-61
2022/12/06 00:41:25;;;;;;;10.05;6.38;;;;;;;;;;5002112;28;20049;-61
2022/12/06 00:43:51;;;;;;;11.90;5.72;;;;;;;;;;4994297;28;20045;-64
2022/12/06 00:46:23;;;;;;;16.42;5.97;;;;;;;;;;5002749;28;20046;-63
2022/12/06 00:48:51;;;;;;;14.55;6.20;;;;;;;;;;5006570;28;20042;-62
2022/12/06 00:51:19;;;;;;;13.75;6.30;;;;;;;;;;5001876;28;20060;-62
2022/12/06 00:53:45;;;;;;;17.42;6.30;;;;;;;;;;5008678;28;20073;-61
2022/12/06 00:56:12;;;;;;;12.10;6.35;;;;;;;;;;5006745;28;20053;-61
2022/12/06 00:58:38;;;;;;;10.90;6.10;;;;;;;;;;4994615;28;20042;-61
2022/12/06 01:01:13;;;;;;;9.20;5.45;;;;;;;;;;5001558;28;20048;-63
2022/12/06 01:03:39;;;;;;;11.98;5.65;;;;;;;;;;4999751;28;20034;-64
2022/12/06 01:06:08;;;;;;;11.23;5.57;;;;;;;;;;4995557;28;20057;-63
2022/12/06 01:08:34;;;;;;;10.65;5.40;;;;;;;;;;5003364;28;20128;-62
2022/12/06 01:11:01;;;;;;;9.73;5.68;;;;;;;;;;4999992;28;20050;-63
2022/12/06 01:13:27;;;;;;;10.43;5.30;;;;;;;;;;4997289;28;20485;-62
2022/12/06 01:15:53;;;;;;;12.30;5.45;;;;;;;;;;4992933;28;20128;-61
2022/12/06 01:18:22;;;;;;;11.32;5.43;;;;;;;;;;4981527;28;20460;-62
2022/12/06 01:20:48;;;;;;;13.98;5.68;;;;;;;;;;4996347;28;20054;-62
2022/12/06 01:23:14;;;;;;;13.23;5.78;;;;;;;;;;4993698;28;20050;-62
2022/12/06 01:25:51;;;;;;;13.45;6.03;;;;;;;;;;4994459;28;20058;-61
2022/12/06 01:28:16;;;;;;;9.38;5.75;;;;;;;;;;5002204;28;20414;-62
2022/12/06 01:30:42;;;;;;;9.38;5.43;;;;;;;;;;4996116;28;20100;-62
2022/12/06 01:33:08;;;;;;;11.90;5.65;;;;;;;;;;4998339;28;20058;-61
2022/12/06 01:35:41;;;;;;;12.07;5.63;;;;;;;;;;5007879;28;20046;-63
2022/12/06 01:38:07;;;;;;;9.10;5.70;;;;;;;;;;5004350;28;20437;-63
2022/12/06 01:40:39;;;;;;;14.25;6.60;;;;;;;;;;5003661;28;20053;-63
2022/12/06 01:43:25;;;;;;;9.93;5.50;;;;;;;;;;4999793;28;20505;-61
2022/12/06 01:45:52;;;;;;;9.88;5.43;;;;;;;;;;5001618;28;20053;-64
2022/12/06 01:48:25;;;;;;;12.05;5.40;;;;;;;;;;5004528;28;20068;-64
2022/12/06 01:50:54;;;;;;;10.77;5.47;;;;;;;;;;5001861;28;20060;-63
2022/12/06 01:53:19;;;;;;;9.38;5.80;;;;;;;;;;4999237;28;20046;-61
2022/12/06 01:55:46;;;;;;;12.07;6.15;;;;;;;;;;5010370;28;20493;-66
2022/12/06 01:58:16;;;;;;;12.45;5.55;;;;;;;;;;5007116;28;20052;-60
2022/12/06 02:00:43;;;;;;;10.77;5.70;;;;;;;;;;5009510;28;20056;-61
2022/12/06 02:03:15;;;;;;;12.93;5.53;;;;;;;;;;4999698;28;20068;-63
2022/12/06 02:05:41;;;;;;;9.27;5.25;;;;;;;;;;5001539;28;20093;-61
2022/12/06 02:08:08;;;;;;;8.48;5.05;;;;;;;;;;5003901;28;20050;-62
2022/12/06 02:10:36;;;;;;;10.43;5.22;;;;;;;;;;5006915;28;20054;-65
2022/12/06 02:13:02;;;;;;;9.30;5.65;;;;;;;;;;5004287;28;20046;-58
2022/12/06 02:15:54;;;;;;;10.05;5.30;;;;;;;;;;5011275;28;20076;-63
2022/12/06 02:18:53;;;;;;;10.30;5.40;;;;;;;;;;5001922;28;20139;-62
2022/12/06 02:21:25;;;;;;;9.02;5.38;;;;;;;;;;4966048;28;20760;-62
2022/12/06 02:24:14;;;;;;;12.52;5.97;;;;;;;;;;5001659;28;20544;-62
2022/12/06 02:26:50;;;;;;;12.50;5.40;;;;;;;;;;4999355;28;20153;-61
2022/12/06 02:29:37;;;;;;;14.27;6.05;;;;;;;;;;5003858;28;20120;-61
2022/12/06 02:32:09;;;;;;;14.05;5.80;;;;;;;;;;5004976;28;20053;-69
2022/12/06 02:35:00;;;;;;;11.95;5.18;;;;;;;;;;5000307;28;20072;-63
2022/12/06 02:37:36;;;;;;;11.73;5.75;;;;;;;;;;4998943;28;20046;-63
2022/12/06 02:40:13;;;;;;;11.60;6.25;;;;;;;;;;5001285;28;20046;-63
2022/12/06 02:42:49;;;;;;;11.10;6.00;;;;;;;;;;4999966;28;20768;-62
2022/12/06 02:45:20;;;;;;;12.63;6.00;;;;;;;;;;4995223;28;20041;-65
2022/12/06 02:47:48;;;;;;;9.25;5.70;;;;;;;;;;4997715;28;20077;-61
2022/12/06 02:50:20;;;;;;;17.17;6.47;;;;;;;;;;4992311;28;20401;-59
2022/12/06 02:52:49;;;;;;;14.68;6.07;;;;;;;;;;4997604;28;20050;-60
2022/12/06 02:55:18;;;;;;;10.93;6.53;;;;;;;;;;5002066;28;20073;-61
2022/12/06 02:57:48;;;;;;;10.52;6.07;;;;;;;;;;4999044;28;20054;-64
2022/12/06 03:00:31;;;;;;;13.38;6.47;;;;;;;;;;5001335;28;20057;-61
2022/12/06 03:03:18;;;;;;;15.18;6.15;;;;;;;;;;4998677;28;20049;-62
2022/12/06 03:05:56;;;;;;;10.73;6.18;;;;;;;;;;4999699;28;20080;-63
2022/12/06 03:08:27;;;;;;;10.65;6.07;;;;;;;;;;5000270;28;20053;-60
2022/12/06 03:10:59;;;;;;;11.80;6.35;;;;;;;;;;5003056;28;20049;-64
2022/12/06 03:13:41;;;;;;;12.60;5.95;;;;;;;;;;4994263;28;20046;-61
2022/12/06 03:16:12;;;;;;;12.38;6.68;;;;;;;;;;4999630;28;20052;-62
2022/12/06 03:18:38;;;;;;;11.75;6.40;;;;;;;;;;4999711;28;20064;-64
2022/12/06 03:21:09;;;;;;;15.07;6.80;;;;;;;;;;5002767;28;20111;-63
2022/12/06 03:23:39;;;;;;;14.05;6.43;;;;;;;;;;4998727;28;20089;-62
2022/12/06 03:26:09;;;;;;;12.57;6.10;;;;;;;;;;5002118;28;20246;-62
2022/12/06 03:28:37;;;;;;;11.20;6.07;;;;;;;;;;5004038;28;20046;-63
2022/12/06 03:31:08;;;;;;;16.17;6.50;;;;;;;;;;4998608;28;20058;-60
2022/12/06 03:33:39;;;;;;;13.52;5.93;;;;;;;;;;4997108;28;20057;-65
2022/12/06 03:36:06;;;;;;;14.55;6.22;;;;;;;;;;5004718;28;20490;-64
2022/12/06 03:38:39;;;;;;;13.90;5.97;;;;;;;;;;5004830;28;20054;-61
2022/12/06 03:41:06;;;;;;;12.55;5.75;;;;;;;;;;4995352;28;20050;-63
2022/12/06 03:43:33;;;;;;;11.02;6.63;;;;;;;;;;4997365;28;20049;-60
2022/12/06 03:46:36;;;;;;;15.65;6.47;;;;;;;;;;4997461;28;20053;-62
2022/12/06 03:49:10;;;;;;;11.85;5.18;;;;;;;;;;4988973;28;20618;-60
2022/12/06 03:51:38;;;;;;;10.88;6.13;;;;;;;;;;5000578;28;20050;-61
2022/12/06 03:54:06;;;;;;;13.77;6.25;;;;;;;;;;5001451;28;20580;-61
2022/12/06 03:56:35;;;;;;;14.30;6.03;;;;;;;;;;5002866;28;20061;-60
2022/12/06 03:59:06;;;;;;;11.80;5.75;;;;;;;;;;5003072;28;20133;-60
2022/12/06 04:01:32;;;;;;;11.30;5.97;;;;;;;;;;4996527;28;20057;-61
2022/12/06 04:03:58;;;;;;;12.63;5.75;;;;;;;;;;5002129;28;20045;-65
2022/12/06 04:06:24;;;;;;;11.65;6.38;;;;;;;;;;4984424;28;20488;-64
2022/12/06 04:08:50;;;;;;;15.80;6.03;;;;;;;;;;4999612;28;20698;-61
2022/12/06 04:11:16;;;;;;;9.07;5.82;;;;;;;;;;5003148;28;20049;-60
2022/12/06 04:13:42;;;;;;;10.07;6.00;;;;;;;;;;4998939;28;20054;-60
2022/12/06 04:18:54;;;;;;;11.07;5.75;;;;;;;;;;5002992;28;20655;-59
2022/12/06 04:23:58;;;;;;;12.25;5.55;;;;;;;;;;5000027;28;20130;-63
2022/12/06 04:26:25;;;;;;;13.73;5.53;;;;;;;;;;4996859;28;20053;-60
2022/12/06 04:39:53;;;;;;;11.45;5.65;;;;;;;;;;4997879;28;20142;-60
2022/12/06 04:45:05;;;;;;;13.82;6.20;;;;;;;;;;4990175;28;20054;-61
2022/12/06 04:47:31;;;;;;;14.80;6.70;;;;;;;;;;4992597;28;20046;-61
2022/12/06 04:49:57;;;;;;;14.75;7.13;;;;;;;;;;5002837;28;20049;-60
2022/12/06 04:52:23;;;;;;;13.98;7.57;;;;;;;;;;5003412;28;20100;-60
2022/12/06 04:54:49;;;;;;;12.52;6.35;;;;;;;;;;5002407;28;20053;-62
2022/12/06 04:57:15;;;;;;;10.13;6.35;;;;;;;;;;5003864;28;20045;-61
2022/12/06 04:59:44;;;;;;;9.27;6.60;;;;;;;;;;5005536;28;20490;-63
2022/12/06 05:02:13;;;;;;;12.43;6.15;;;;;;;;;;5003765;28;20050;-60
2022/12/06 05:04:39;;;;;;;9.27;6.15;;;;;;;;;;4991483;28;20056;-61
2022/12/06 05:07:06;;;;;;;10.73;6.15;;;;;;;;;;5008374;28;20073;-62
2022/12/06 05:09:32;;;;;;;11.60;6.20;;;;;;;;;;5009133;28;20493;-61
2022/12/06 05:11:57;;;;;;;9.82;6.15;;;;;;;;;;5008431;28;20050;-61
2022/12/06 05:14:23;;;;;;;13.32;6.60;;;;;;;;;;4999782;28;20054;-60
2022/12/06 05:16:49;;;;;;;13.45;6.40;;;;;;;;;;5005028;28;20046;-60
2022/12/06 05:19:15;;;;;;;13.20;6.47;;;;;;;;;;5001575;28;20074;-61
2022/12/06 05:21:41;;;;;;;10.20;6.30;;;;;;;;;;4985228;28;20053;-61
2022/12/06 05:24:07;;;;;;;12.48;6.40;;;;;;;;;;5003267;28;20050;-62
2022/12/06 05:26:33;;;;;;;10.57;6.25;;;;;;;;;;5001480;28;20586;-61
2022/12/06 05:28:59;;;;;;;9.82;6.38;;;;;;;;;;5002819;28;20050;-61
2022/12/06 05:31:26;;;;;;;10.07;6.10;;;;;;;;;;5000496;28;20069;-59
2022/12/06 05:33:52;;;;;;;12.10;7.35;;;;;;;;;;4999853;28;20888;-60
2022/12/06 05:36:24;;;;;;;12.13;5.88;;;;;;;;;;5000189;28;20128;-63
2022/12/06 05:38:51;;;;;;;11.70;5.90;;;;;;;;;;4998844;28;20073;-61
2022/12/06 05:41:18;;;;;;;8.98;6.30;;;;;;;;;;4999190;28;20127;-62
2022/12/06 05:43:44;;;;;;;12.38;5.85;;;;;;;;;;5003563;28;20057;-61
2022/12/06 05:46:10;;;;;;;8.32;6.00;;;;;;;;;;5006631;28;20046;-59
2022/12/06 05:48:36;;;;;;;13.27;6.30;;;;;;;;;;5002835;28;20050;-59
2022/12/06 05:51:02;;;;;;;11.32;6.10;;;;;;;;;;4994782;28;20386;-60
2022/12/06 05:53:29;;;;;;;10.70;6.28;;;;;;;;;;5006219;28;20568;-58
2022/12/06 05:55:55;;;;;;;12.95;6.00;;;;;;;;;;5006950;28;20034;-61
2022/12/06 05:58:21;;;;;;;9.98;5.60;;;;;;;;;;5006136;28;20057;-62
2022/12/06 06:00:50;;;;;;;9.77;5.47;;;;;;;;;;5003474;28;20045;-61
2022/12/06 06:03:17;;;;;;;7.72;5.40;;;;;;;;;;4998773;28;20042;-63
2022/12/06 06:05:48;;;;;;;8.55;5.35;;;;;;;;;;5007677;28;20100;-60
2022/12/06 06:08:15;;;;;;;12.70;5.85;;;;;;;;;;5006624;28;20046;-60
2022/12/06 06:10:41;;;;;;;8.80;6.03;;;;;;;;;;4999519;28;20081;-63
2022/12/06 06:13:08;;;;;;;10.82;6.30;;;;;;;;;;5002170;28;20413;-60
2022/12/06 06:15:34;;;;;;;12.40;6.45;;;;;;;;;;5003757;28;20042;-58
2022/12/06 06:18:00;;;;;;;11.13;6.03;;;;;;;;;;5002375;28;20070;-60
2022/12/06 06:20:26;;;;;;;13.20;6.82;;;;;;;;;;5000713;28;20050;-61
2022/12/06 06:22:53;;;;;;;14.23;7.13;;;;;;;;;;4997246;28;20081;-61
2022/12/06 06:25:19;;;;;;;15.00;7.45;;;;;;;;;;5004461;28;20050;-60
2022/12/06 06:27:45;;;;;;;13.05;7.47;;;;;;;;;;4997321;28;20046;-62
2022/12/06 06:30:11;;;;;;;13.88;8.07;;;;;;;;;;4991831;28;20621;-64
2022/12/06 06:32:38;;;;;;;22.55;10.93;;;;;;;;;;4999646;28;20058;-62
2022/12/06 06:35:06;;;;;;;16.25;9.48;;;;;;;;;;4996665;28;20050;-61
2022/12/06 06:37:32;;;;;;;19.63;8.82;;;;;;;;;;5005649;28;20116;-61
2022/12/06 06:39:59;;;;;;;16.02;9.13;;;;;;;;;;4995543;28;20497;-60
2022/12/06 06:42:25;;;;;;;12.25;8.07;;;;;;;;;;5000305;28;20473;-61
2022/12/06 06:44:53;;;;;;;13.70;8.75;;;;;;;;;;5003665;28;20685;-62
2022/12/06 06:47:20;;;;;;;12.98;8.25;;;;;;;;;;5009080;28;20125;-61
2022/12/06 06:49:46;;;;;;;12.70;8.52;;;;;;;;;;5004775;28;20533;-62
2022/12/06 06:52:12;;;;;;;15.50;7.68;;;;;;;;;;5006978;28;20108;-61
2022/12/06 06:54:37;;;;;;;16.45;8.70;;;;;;;;;;5000278;28;20457;-63
2022/12/06 06:57:03;;;;;;;15.02;8.45;;;;;;;;;;5003073;28;20050;-60
2022/12/06 06:59:29;;;;;;;16.27;8.90;;;;;;;;;;5007090;28;20115;-64
2022/12/06 07:01:55;;;;;;;15.40;8.80;;;;;;;;;;5001517;28;21067;-62
2022/12/06 07:04:21;;;;;;;11.98;9.35;;;;;;;;;;4994592;28;20072;-61
2022/12/06 07:06:47;;;;;;;13.63;8.20;;;;;;;;;;4994465;28;21024;-61
2022/12/06 07:09:13;;;;;;;15.35;9.65;;;;;;;;;;4997702;28;20076;-61
2022/12/06 07:11:39;;;;;;;19.55;8.73;;;;;;;;;;5001122;28;20046;-62
2022/12/06 07:14:05;;;;;;;18.52;8.93;;;;;;;;;;4992705;28;20049;-62
2022/12/06 07:16:31;;;;;;;22.67;9.90;;;;;;;;;;4998290;28;20054;-62
2022/12/06 07:18:57;;;;;;;20.42;9.90;;;;;;;;;;4991508;28;20635;-62
2022/12/06 07:21:23;;;;;;;19.08;9.52;;;;;;;;;;4998094;28;20061;-61
2022/12/06 07:23:49;;;;;;;17.65;9.77;;;;;;;;;;5004984;28;20050;-63
2022/12/06 07:26:19;;;;;;;15.77;9.15;;;;;;;;;;5005423;28;20054;-62
2022/12/06 07:28:47;;;;;;;16.17;9.82;;;;;;;;;;5003585;28;20809;-67
2022/12/06 07:31:15;;;;;;;14.43;8.57;;;;;;;;;;5001726;28;20077;-61
2022/12/06 07:33:42;;;;;;;16.35;9.68;;;;;;;;;;4996905;28;20046;-64
2022/12/06 07:36:10;;;;;;;14.82;9.43;;;;;;;;;;4982001;28;20050;-63
2022/12/06 07:38:36;;;;;;;22.38;9.35;;;;;;;;;;5002273;28;20046;-63
2022/12/06 07:46:38;;;;;;;16.75;10.70;;;;;;;;;;5002582;28;20060;-62
2022/12/06 07:49:04;;;;;;;19.73;9.32;;;;;;;;;;4995977;28;20039;-62
2022/12/06 07:51:30;;;;;;;21.20;9.80;;;;;;;;;;4989108;28;20050;-62
2022/12/06 07:53:57;;;;;;;19.33;10.52;;;;;;;;;;4999672;28;20049;-63
2022/12/06 07:56:23;;;;;;;20.73;10.38;;;;;;;;;;5002412;28;20156;-61
2022/12/06 07:58:49;;;;;;;17.77;10.70;;;;;;;;;;4999476;28;20046;-64
2022/12/06 08:01:15;;;;;;;15.27;9.80;;;;;;;;;;4996719;28;20050;-65
2022/12/06 08:03:41;;;;;;;16.80;9.95;;;;;;;;;;4998509;28;20104;-66
2022/12/06 08:06:07;;;;;;;18.70;9.93;;;;;;;;;;5004300;28;20061;-65
2022/12/06 08:08:34;;;;;;;21.25;11.25;;;;;;;;;;5001377;28;20049;-61
2022/12/06 08:11:01;;;;;;;20.15;10.50;;;;;;;;;;5005117;28;20470;-62
2022/12/06 08:13:28;;;;;;;19.48;10.40;;;;;;;;;;5003010;28;20054;-63
2022/12/06 08:15:55;;;;;;;20.38;10.95;;;;;;;;;;4990589;28;20053;-65
2022/12/06 08:18:20;;;;;;;18.45;10.57;;;;;;;;;;4994077;28;20095;-62
2022/12/06 08:20:47;;;;;;;17.05;9.98;;;;;;;;;;4995737;28;20054;-66
2022/12/06 08:23:12;;;;;;;19.48;10.82;;;;;;;;;;4990218;28;20049;-65
2022/12/06 08:25:38;;;;;;;15.60;9.75;;;;;;;;;;4998807;28;20061;-67
2022/12/06 08:28:04;;;;;;;21.30;11.13;;;;;;;;;;4990128;28;20093;-64
2022/12/06 08:30:31;;;;;;;19.92;10.30;;;;;;;;;;4993840;28;20054;-67
2022/12/06 08:32:57;;;;;;;21.38;10.23;;;;;;;;;;4993539;28;20072;-64
2022/12/06 08:35:23;;;;;;;16.25;9.95;;;;;;;;;;4998033;28;20053;-62
2022/12/06 08:37:49;;;;;;;19.40;10.57;;;;;;;;;;4991855;28;20045;-62
2022/12/06 08:40:16;;;;;;;22.55;11.05;;;;;;;;;;4996732;28;20050;-62
2022/12/06 08:42:44;;;;;;;20.55;11.68;;;;;;;;;;5001877;28;20052;-62
2022/12/06 08:45:10;;;;;;;22.55;12.10;;;;;;;;;;4995830;28;20564;-63
2022/12/06 08:47:36;;;;;;;22.95;10.95;;;;;;;;;;4996086;28;20038;-64
2022/12/06 08:50:04;;;;;;;19.15;11.40;;;;;;;;;;5005200;28;20076;-63
2022/12/06 08:52:30;;;;;;;27.98;11.32;;;;;;;;;;4992138;28;20069;-63
2022/12/06 08:54:56;;;;;;;25.08;11.27;;;;;;;;;;4993389;28;20062;-61
2022/12/06 08:57:21;;;;;;;24.33;12.00;;;;;;;;;;5002952;28;20042;-63
2022/12/06 08:59:48;;;;;;;17.80;11.88;;;;;;;;;;4998269;28;20042;-66
2022/12/06 09:02:14;;;;;;;18.25;11.07;;;;;;;;;;4991810;28;20061;-63
2022/12/06 09:04:40;;;;;;;21.13;10.68;;;;;;;;;;5001020;28;20188;-62
2022/12/06 09:07:06;;;;;;;16.23;10.07;;;;;;;;;;4992710;28;20115;-65
2022/12/06 09:09:32;;;;;;;15.95;9.90;;;;;;;;;;4988178;28;20113;-63
2022/12/06 09:11:57;;;;;;;20.25;10.68;;;;;;;;;;4989472;28;20050;-64
2022/12/06 09:14:23;;;;;;;19.85;10.40;;;;;;;;;;4970950;28;20461;-64
2022/12/06 09:16:50;;;;;;;17.90;10.38;;;;;;;;;;4988142;28;20053;-64
2022/12/06 09:19:16;;;;;;;19.15;10.45;;;;;;;;;;4994259;28;20057;-65
2022/12/06 09:21:42;;;;;;;22.63;10.90;;;;;;;;;;4994587;28;20061;-64
2022/12/06 09:24:13;;;;;;;15.07;10.75;;;;;;;;;;4986399;28;20084;-64
2022/12/06 09:26:39;;;;;;;18.85;9.68;;;;;;;;;;4986219;28;20142;-65
2022/12/06 09:29:06;;;;;;;21.20;10.13;;;;;;;;;;4988036;28;20042;-61
2022/12/06 09:31:32;;;;;;;20.85;10.25;;;;;;;;;;4995845;28;20125;-62
2022/12/06 09:33:58;;;;;;;18.30;11.13;;;;;;;;;;4991787;28;20563;-64
2022/12/06 09:36:27;;;;;;;22.98;12.20;;;;;;;;;;4990209;28;20045;-64
2022/12/06 09:38:59;;;;;;;16.67;10.82;;;;;;;;;;4993331;28;20160;-63
2022/12/06 09:42:02;;;;;;;18.40;10.73;;;;;;;;;;4992636;28;20054;-63
2022/12/06 09:44:59;;;;;;;19.50;11.57;;;;;;;;;;4992656;28;20054;-62
2022/12/06 09:47:43;;;;;;;27.45;11.20;;;;;;;;;;4992256;28;21577;-64
2022/12/06 09:50:34;;;;;;;19.52;12.00;;;;;;;;;;4994556;28;20083;-64
2022/12/06 09:53:29;;;;;;;16.20;10.50;;;;;;;;;;4977723;28;20058;-67
2022/12/06 09:56:13;;;;;;;17.73;10.93;;;;;;;;;;4993673;28;20050;-62
2022/12/06 09:58:39;;;;;;;17.03;10.47;;;;;;;;;;4993585;28;20069;-63
2022/12/06 10:01:26;;;;;;;16.08;10.35;;;;;;;;;;4994549;28;20481;-61
2022/12/06 10:04:23;;;;;;;22.13;11.05;;;;;;;;;;4993312;28;20096;-65
2022/12/06 10:07:10;;;;;;;18.63;10.27;;;;;;;;;;4990109;28;20049;-62
2022/12/06 10:10:10;;;;;;;17.58;10.30;;;;;;;;;;4993841;28;20046;-63
2022/12/06 10:13:10;;;;;;;19.30;10.52;;;;;;;;;;4996328;28;20514;-64
2022/12/06 10:16:11;;;;;;;15.93;10.13;;;;;;;;;;4995890;28;20050;-65
2022/12/06 10:18:45;;;;;;;18.58;10.35;;;;;;;;;;4995435;28;20053;-64
2022/12/06 10:21:48;;;;;;;20.52;10.43;;;;;;;;;;4993790;28;20054;-64
2022/12/06 10:24:43;;;;;;;16.63;11.05;;;;;;;;;;4913739;29;20061;-66
2022/12/06 10:27:11;;;;;;;18.20;10.15;;;;;;;;;;4916441;29;20103;-63
2022/12/06 10:29:50;;;;;;;24.13;10.05;;;;;;;;;;4922606;29;20071;-64
2022/12/06 10:32:23;;;;;;;19.60;9.65;;;;;;;;;;4919304;29;20066;-62
2022/12/06 10:34:55;;;;;;;20.77;10.45;;;;;;;;;;4924543;29;20058;-62
2022/12/06 10:37:58;;;;;;;16.23;8.80;;;;;;;;;;4917267;29;20400;-62
2022/12/06 10:40:33;;;;;;;14.52;9.68;;;;;;;;;;4924811;29;20051;-65
2022/12/06 10:43:23;;;;;;;13.45;9.25;;;;;;;;;;4924313;29;20178;-64
2022/12/06 10:49:27;;;;;;;12.32;8.23;;;;;;;;;;4917063;29;20590;-63
2022/12/06 10:52:29;;;;;;;13.90;8.63;;;;;;;;;;4913420;29;20090;-63
2022/12/06 10:55:02;;;;;;;13.68;8.38;;;;;;;;;;4911276;29;20063;-63
2022/12/06 10:58:05;;;;;;;15.05;8.25;;;;;;;;;;4918319;29;20059;-65
2022/12/06 11:00:43;;;;;;;12.27;7.53;;;;;;;;;;4977429;28;20360;-62
2022/12/06 11:03:23;;;;;;;11.68;8.27;;;;;;;;;;4983328;28;20497;-65
2022/12/06 11:06:11;;;;;;;16.00;7.82;;;;;;;;;;4993016;28;20050;-64
2022/12/06 11:08:50;;;;;;;15.75;8.48;;;;;;;;;;4976228;28;20050;-65
2022/12/06 11:11:23;;;;;;;16.85;8.63;;;;;;;;;;4995238;28;20210;-64
2022/12/06 11:13:58;;;;;;;16.10;8.55;;;;;;;;;;4991408;28;20096;-67
2022/12/06 11:16:36;;;;;;;13.60;8.88;;;;;;;;;;4993663;28;20104;-64
2022/12/06 11:19:27;;;;;;;15.52;8.50;;;;;;;;;;4998157;28;20046;-66
2022/12/06 11:22:03;;;;;;;17.55;9.35;;;;;;;;;;4995238;28;20061;-66
2022/12/06 11:24:37;;;;;;;14.48;8.88;;;;;;;;;;4998790;28;20406;-65
2022/12/06 11:27:33;;;;;;;20.17;9.38;;;;;;;;;;4997075;28;20054;-72
2022/12/06 11:30:02;;;;;;;17.65;9.40;;;;;;;;;;4997622;28;20061;-62
2022/12/06 11:32:28;;;;;;;14.43;9.32;;;;;;;;;;4995572;28;20598;-65
2022/12/06 11:34:57;;;;;;;16.25;8.90;;;;;;;;;;4996979;28;20084;-65
2022/12/06 11:37:29;;;;;;;9.80;6.53;;;;;;;;;;4993078;28;20070;-66
2022/12/06 11:40:06;;;;;;;11.95;7.38;;;;;;;;;;4999392;28;20089;-65
2022/12/06 11:42:31;;;;;;;16.52;8.20;;;;;;;;;;4995680;28;20476;-63
2022/12/06 11:45:09;;;;;;;16.52;8.50;;;;;;;;;;4992895;28;20057;-64
2022/12/06 11:47:35;;;;;;;16.75;8.23;;;;;;;;;;4996490;28;20081;-65
2022/12/06 11:50:01;;;;;;;14.90;8.15;;;;;;;;;;4994271;28;20509;-66
2022/12/06 11:52:43;;;;;;;14.32;8.57;;;;;;;;;;4990633;28;20057;-67
2022/12/06 11:55:27;;;;;;;18.92;7.68;;;;;;;;;;4997874;28;20588;-65
2022/12/06 11:57:56;;;;;;;14.73;7.50;;;;;;;;;;4996794;28;20054;-62
2022/12/06 12:00:24;;;;;;;16.67;8.07;;;;;;;;;;4995786;28;20049;-67
2022/12/06 12:02:53;;;;;;;16.02;7.60;;;;;;;;;;4999848;28;20405;-67
2022/12/06 12:05:24;;;;;;;12.13;6.88;;;;;;;;;;4996810;28;20046;-67
2022/12/06 12:08:15;;;;;;;14.93;8.05;;;;;;;;;;4977004;28;20050;-65
2022/12/06 12:10:58;;;;;;;12.18;7.53;;;;;;;;;;4999265;28;20045;-64
2022/12/06 12:13:43;;;;;;;15.30;7.43;;;;;;;;;;4995286;28;20054;-65
2022/12/06 12:16:23;;;;;;;14.90;8.02;;;;;;;;;;4977042;28;20235;-63
2022/12/06 12:19:00;;;;;;;16.35;8.68;;;;;;;;;;4989115;28;20064;-66
2022/12/06 12:21:34;;;;;;;19.30;8.00;;;;;;;;;;4990752;28;20058;-64
2022/12/06 12:24:01;;;;;;;15.98;7.68;;;;;;;;;;4958320;28;20053;-66
2022/12/06 12:26:41;;;;;;;13.57;7.35;;;;;;;;;;5003717;28;20447;-62
2022/12/06 12:29:06;;;;;;;19.02;8.15;;;;;;;;;;5002374;28;20769;-64
2022/12/06 12:31:45;;;;;;;15.00;7.53;;;;;;;;;;4997842;28;20666;-63
2022/12/06 12:34:18;;;;;;;18.92;7.18;;;;;;;;;;4990106;28;20069;-63
2022/12/06 12:36:56;;;;;;;15.75;8.10;;;;;;;;;;4994483;28;20062;-66
2022/12/06 12:39:30;;;;;;;17.33;7.05;;;;;;;;;;4985279;28;20049;-66
2022/12/06 12:41:56;;;;;;;15.02;7.57;;;;;;;;;;4979752;28;20042;-66
2022/12/06 12:44:45;;;;;;;15.88;7.50;;;;;;;;;;4999932;28;20053;-66
2022/12/06 12:47:18;;;;;;;23.58;7.47;;;;;;;;;;4976989;28;20050;-68
2022/12/06 12:50:19;;;;;;;13.50;7.57;;;;;;;;;;4974379;28;20045;-65
2022/12/06 12:52:46;;;;;;;18.67;8.85;;;;;;;;;;4997294;28;20132;-67
2022/12/06 12:55:16;;;;;;;13.07;6.85;;;;;;;;;;4996497;28;20103;-69
2022/12/06 12:57:45;;;;;;;15.18;7.75;;;;;;;;;;4990455;28;20065;-69
2022/12/06 13:00:16;;;;;;;13.00;6.85;;;;;;;;;;4981667;28;20057;-65
2022/12/06 13:02:49;;;;;;;20.90;7.43;;;;;;;;;;4985123;28;20054;-66
2022/12/06 13:05:20;;;;;;;15.52;7.47;;;;;;;;;;4987296;28;20257;-66
2022/12/06 13:07:49;;;;;;;16.42;7.53;;;;;;;;;;4988187;28;20050;-66
2022/12/06 13:10:25;;;;;;;15.32;7.32;;;;;;;;;;4991157;28;20050;-71
2022/12/06 13:13:01;;;;;;;14.68;6.50;;;;;;;;;;4971063;28;20061;-65
2022/12/06 13:15:34;;;;;;;17.50;6.60;;;;;;;;;;4977998;28;20057;-63
2022/12/06 13:18:49;;;;;;;13.73;6.72;;;;;;;;;;4987703;28;20120;-65
2022/12/06 13:21:23;;;;;;;12.18;5.95;;;;;;;;;;4965788;28;20061;-63
2022/12/06 13:24:13;;;;;;;12.82;6.65;;;;;;;;;;4998866;28;20054;-64
2022/12/06 13:26:47;;;;;;;13.63;6.20;;;;;;;;;;4980995;28;20077;-64
2022/12/06 13:29:23;;;;;;;;;;;;;;;;;;4994981;28;20053;-64
2022/12/06 13:31:52;;;;;;;17.08;7.18;;;;;;;;;;4996730;28;20020;-67
2022/12/06 13:34:29;;;;;;;19.27;7.03;;;;;;;;;;4999342;28;20084;-66
2022/12/06 13:36:55;;;;;;;14.32;6.90;;;;;;;;;;4998777;28;20050;-64
2022/12/06 13:39:35;;;;;;;14.63;6.60;;;;;;;;;;4998294;28;20053;-63
2022/12/06 13:42:19;;;;;;;17.63;7.40;;;;;;;;;;4994933;28;20107;-67
2022/12/06 13:44:59;;;;;;;15.23;7.13;;;;;;;;;;4995291;28;20052;-64
2022/12/06 13:47:28;;;;;;;15.77;7.80;;;;;;;;;;4997965;28;20148;-64
2022/12/06 13:50:02;;;;;;;10.80;6.95;;;;;;;;;;4990476;28;20848;-65
2022/12/06 13:52:42;;;;;;;12.20;6.90;;;;;;;;;;4996140;28;20062;-62
2022/12/06 13:55:24;;;;;;;17.50;7.13;;;;;;;;;;4998073;28;20497;-65
2022/12/06 13:58:15;;;;;;;20.67;7.40;;;;;;;;;;4994841;28;20065;-63
2022/12/06 14:00:41;;;;;;;13.98;6.97;;;;;;;;;;4992382;28;20054;-66
2022/12/06 14:03:16;;;;;;;11.18;6.93;;;;;;;;;;4977930;28;20087;-63
2022/12/06 14:05:59;;;;;;;16.10;6.35;;;;;;;;;;5002459;28;20058;-63
2022/12/06 14:08:56;;;;;;;12.77;6.40;;;;;;;;;;4982174;28;20042;-63
2022/12/06 14:11:24;;;;;;;11.77;6.25;;;;;;;;;;4999686;28;20779;-62
2022/12/06 14:13:58;;;;;;;11.80;5.38;;;;;;;;;;4981733;28;20693;-63
2022/12/06 14:16:31;;;;;;;13.85;5.60;;;;;;;;;;5001841;28;20054;-61
2022/12/06 14:18:57;;;;;;;10.48;5.07;;;;;;;;;;4996355;28;20049;-61
2022/12/06 14:21:33;;;;;;;11.52;5.75;;;;;;;;;;4999810;28;20065;-65
2022/12/06 14:23:59;;;;;;;13.18;6.10;;;;;;;;;;5002128;28;20054;-64
2022/12/06 14:26:27;;;;;;;12.73;6.95;;;;;;;;;;5002878;28;20052;-63
2022/12/06 14:28:58;;;;;;;11.75;6.00;;;;;;;;;;4998662;28;20143;-63
2022/12/06 14:31:27;;;;;;;10.50;5.18;;;;;;;;;;5001346;28;20389;-63
2022/12/06 14:33:54;;;;;;;9.88;4.30;;;;;;;;;;4998810;28;20132;-63
2022/12/06 14:36:33;;;;;;;11.73;4.53;;;;;;;;;;5002344;28;20060;-64
2022/12/06 14:39:06;;;;;;;10.52;4.65;;;;;;;;;;5002162;28;20058;-65
2022/12/06 14:44:27;;;;;;;7.93;4.65;;;;;;;;;;5000544;28;20058;-64
2022/12/06 14:46:54;;;;;;;7.53;4.20;;;;;;;;;;4980173;28;20489;-63
2022/12/06 14:52:18;;;;;;;8.93;3.85;;;;;;;;;;4997119;28;20054;-64
2022/12/06 14:54:45;;;;;;;9.93;4.10;;;;;;;;;;5003602;28;20050;-62
2022/12/06 14:57:22;;;;;;;6.53;3.30;;;;;;;;;;4998742;28;20476;-64
2022/12/06 14:59:58;;;;;;;7.95;3.42;;;;;;;;;;4996227;28;20100;-65
2022/12/06 15:02:27;;;;;;;5.93;3.30;;;;;;;;;;4978624;28;20353;-65
2022/12/06 15:04:54;;;;;;;7.63;2.78;;;;;;;;;;4999095;28;20141;-63
2022/12/06 15:07:38;;;;;;;6.60;2.60;;;;;;;;;;4977352;28;20109;-64
2022/12/06 15:10:18;;;;;;;7.22;2.92;;;;;;;;;;4999531;28;20068;-64
2022/12/06 15:12:56;;;;;;;7.57;2.50;;;;;;;;;;4996296;28;20157;-63
2022/12/06 15:15:38;;;;;;;7.93;3.22;;;;;;;;;;4992282;28;20124;-63
2022/12/06 15:18:10;;;;;;;7.53;2.50;;;;;;;;;;4996459;28;20054;-66
2022/12/06 15:20:35;;;;;;;9.90;2.65;;;;;;;;;;4999300;28;20119;-64
2022/12/06 15:23:27;;;;;;;8.75;3.05;;;;;;;;;;5001387;28;20057;-64
2022/12/06 15:25:54;;;;;;;8.77;3.30;;;;;;;;;;4997487;28;20061;-66
2022/12/06 15:28:20;;;;;;;7.70;3.03;;;;;;;;;;4994060;28;20091;-64
2022/12/06 15:30:47;;;;;;;7.93;3.60;;;;;;;;;;4992359;28;20050;-63
2022/12/06 15:33:16;;;;;;;9.18;4.00;;;;;;;;;;4998172;28;20269;-62